Time;durP1;ratioP1;P1;durP2;ratioP2;P2;SDS_P1;SDS_P2;PMS_P1;PMS_P2;Temp;Humidity;BMP_temperature;BMP_pressure;BME280_temperature;BME280_humidity;BME280_pressure;Samples;Min_cycle;Max_cycle;Signal;HPM_P1;HPM_P2
2023/07/20 00:01:13;;;;;;;14.73;7.95;;;;;;;21.74;80.95;99942.22;4998309;28;20570;-74
2023/07/20 00:03:38;;;;;;;17.65;7.90;;;;;;;21.80;80.76;99948.22;5000779;28;20137;-74
2023/07/20 00:06:04;;;;;;;17.45;7.38;;;;;;;21.77;80.66;99933.56;4998820;28;20037;-74
2023/07/20 00:08:30;;;;;;;16.00;7.20;;;;;;;21.81;80.67;99939.06;4999174;28;20026;-75
2023/07/20 00:10:55;;;;;;;17.92;6.90;;;;;;;21.65;80.59;99918.06;4997149;28;20437;-75
2023/07/20 00:13:21;;;;;;;16.60;6.75;;;;;;;21.76;80.96;99940.00;4995117;28;20408;-74
2023/07/20 00:15:46;;;;;;;13.73;5.97;;;;;;;21.73;80.80;99945.22;4997431;28;20026;-74
2023/07/20 00:18:12;;;;;;;12.88;6.15;;;;;;;21.68;80.70;99932.75;4997667;28;20033;-75
2023/07/20 00:20:38;;;;;;;13.52;5.80;;;;;;;21.60;80.80;99920.91;4998467;28;20037;-74
2023/07/20 00:23:03;;;;;;;13.35;6.35;;;;;;;21.34;80.96;99867.19;4995164;28;20048;-74
2023/07/20 00:25:29;;;;;;;13.10;5.32;;;;;;;21.51;80.74;99881.78;4996860;28;20030;-74
2023/07/20 00:27:54;;;;;;;11.70;4.80;;;;;;;21.54;80.91;99884.63;4998363;28;20542;-74
2023/07/20 00:30:20;;;;;;;11.77;4.97;;;;;;;21.45;81.22;99875.75;4993954;28;20904;-74
2023/07/20 00:32:45;;;;;;;11.02;4.80;;;;;;;21.54;81.23;99908.72;5001353;28;20050;-75
2023/07/20 00:35:11;;;;;;;10.55;5.28;;;;;;;21.42;81.45;99903.19;5001718;28;20585;-75
2023/07/20 00:37:37;;;;;;;9.60;4.85;;;;;;;21.40;81.73;99927.59;4994356;28;20054;-74
2023/07/20 00:40:04;;;;;;;12.15;5.10;;;;;;;21.41;81.85;99934.53;4996438;28;20032;-74
2023/07/20 00:42:29;;;;;;;14.07;5.40;;;;;;;21.31;81.78;99933.97;4996056;28;20065;-74
2023/07/20 00:44:55;;;;;;;14.88;6.57;;;;;;;21.34;81.89;99944.09;5000183;28;20057;-74
2023/07/20 00:47:20;;;;;;;21.30;7.60;;;;;;;21.34;82.07;99947.56;5004131;28;20128;-73
2023/07/20 00:49:46;;;;;;;15.75;7.97;;;;;;;21.23;82.13;99938.97;5002062;28;20032;-73
2023/07/20 00:52:14;;;;;;;19.40;8.27;;;;;;;21.24;82.33;99926.41;5001723;28;20033;-75
2023/07/20 00:54:41;;;;;;;20.13;9.75;;;;;;;21.23;82.43;99932.84;4998463;28;20492;-74
2023/07/20 00:57:07;;;;;;;23.77;9.40;;;;;;;21.22;82.44;99952.69;5001487;28;20017;-75
2023/07/20 00:59:34;;;;;;;20.83;9.50;;;;;;;21.01;82.72;99942.47;5001002;28;20582;-75
2023/07/20 01:02:00;;;;;;;23.33;9.85;;;;;;;21.08;82.46;99949.31;4997807;28;20030;-75
2023/07/20 01:04:27;;;;;;;19.08;9.25;;;;;;;21.04;82.60;99944.53;5003874;28;20117;-75
2023/07/20 01:07:07;;;;;;;19.27;8.70;;;;;;;21.11;82.66;99956.72;4998912;28;20034;-75
2023/07/20 01:09:48;;;;;;;17.85;8.75;;;;;;;20.95;82.87;99937.56;4998818;28;20027;-75
2023/07/20 01:12:22;;;;;;;19.33;9.00;;;;;;;20.93;82.83;99940.56;5000275;28;20113;-74
2023/07/20 01:14:48;;;;;;;23.35;10.88;;;;;;;20.87;82.96;99940.97;5001884;28;20549;-75
2023/07/20 01:17:14;;;;;;;23.88;11.43;;;;;;;20.78;83.11;99919.50;4999798;28;20061;-74
2023/07/20 01:19:39;;;;;;;24.48;10.13;;;;;;;20.86;83.03;99929.47;5002601;28;20026;-76
2023/07/20 01:22:32;;;;;;;18.98;8.77;;;;;;;20.91;83.15;99928.56;4999776;28;20049;-75
2023/07/20 01:25:10;;;;;;;13.30;6.22;;;;;;;20.86;83.21;99934.84;4999588;28;20076;-74
2023/07/20 01:28:13;;;;;;;13.65;4.97;;;;;;;20.80;83.42;99933.38;5002581;28;20034;-75
2023/07/20 01:31:13;;;;;;;10.63;3.90;;;;;;;20.69;84.63;99945.44;4999491;28;20030;-75
2023/07/20 01:33:40;;;;;;;8.13;3.53;;;;;;;20.38;84.63;99908.66;5001352;28;20475;-75
2023/07/20 01:36:07;;;;;;;7.95;3.95;;;;;;;20.50;84.86;99946.34;4995128;28;20043;-74
2023/07/20 01:38:32;;;;;;;8.60;3.70;;;;;;;20.29;85.62;99916.59;4997505;28;21192;-75
2023/07/20 01:40:58;;;;;;;5.70;3.20;;;;;;;20.30;86.18;99926.16;5001401;28;20101;-74
2023/07/20 01:43:23;;;;;;;7.78;3.40;;;;;;;20.23;86.35;99930.34;4998385;28;20028;-75
2023/07/20 01:45:48;;;;;;;9.45;3.42;;;;;;;20.15;87.00;99932.66;5002229;28;20704;-75
2023/07/20 01:48:14;;;;;;;7.40;3.47;;;;;;;20.15;87.47;99938.00;4997165;28;20468;-74
2023/07/20 01:50:40;;;;;;;4.60;3.10;;;;;;;20.05;87.73;99932.09;5001398;28;20423;-74
2023/07/20 01:53:05;;;;;;;6.28;3.67;;;;;;;19.93;88.41;99925.38;4997542;28;20026;-74
2023/07/20 01:55:30;;;;;;;11.50;4.30;;;;;;;19.91;88.45;99924.09;4999427;28;20452;-77
2023/07/20 01:57:56;;;;;;;7.03;3.20;;;;;;;19.86;88.77;99916.16;5001569;28;20032;-75
2023/07/20 02:00:23;;;;;;;7.13;3.80;;;;;;;19.80;88.87;99909.34;5000404;28;20145;-74
2023/07/20 02:02:50;;;;;;;10.32;3.53;;;;;;;19.68;89.29;99907.97;5001167;28;20100;-74
2023/07/20 02:05:15;;;;;;;7.57;3.60;;;;;;;19.64;89.43;99901.59;4998916;28;20572;-75
2023/07/20 02:07:41;;;;;;;8.15;3.70;;;;;;;19.66;89.86;99917.34;5000713;28;20104;-74
2023/07/20 02:10:07;;;;;;;12.48;4.13;;;;;;;19.37;90.21;99889.06;4999571;28;20032;-76
2023/07/20 02:12:32;;;;;;;9.75;3.70;;;;;;;19.57;90.51;99913.78;4997878;28;20026;-74
2023/07/20 02:14:57;;;;;;;9.68;4.28;;;;;;;19.54;90.33;99905.28;5000840;28;20029;-73
2023/07/20 02:17:23;;;;;;;8.73;4.18;;;;;;;19.52;90.78;99925.34;5002672;28;20055;-74
2023/07/20 02:19:57;;;;;;;9.50;3.78;;;;;;;19.45;90.86;99915.06;5003398;28;20058;-73
2023/07/20 02:22:23;;;;;;;9.02;4.03;;;;;;;19.52;91.04;99923.47;4998729;28;20031;-74
2023/07/20 02:24:49;;;;;;;9.13;4.15;;;;;;;19.43;91.08;99921.78;4998956;28;20030;-74
2023/07/20 02:27:15;;;;;;;12.20;3.72;;;;;;;19.36;91.74;99926.72;4999371;28;20052;-74
2023/07/20 02:29:41;;;;;;;8.45;4.00;;;;;;;19.35;91.66;99947.28;5002582;28;20129;-75
2023/07/20 02:32:07;;;;;;;9.57;3.80;;;;;;;19.33;91.42;99949.47;4999738;28;20058;-75
2023/07/20 02:34:33;;;;;;;14.35;4.40;;;;;;;19.27;91.92;99939.94;4996570;28;20615;-74
2023/07/20 02:37:00;;;;;;;16.67;4.32;;;;;;;19.29;91.94;99946.56;5002649;28;20038;-74
2023/07/20 02:39:27;;;;;;;12.70;4.20;;;;;;;19.23;92.31;99944.31;4997535;28;20022;-74
2023/07/20 02:41:52;;;;;;;9.40;4.13;;;;;;;19.26;92.70;99947.16;5012804;28;20076;-74
2023/07/20 02:44:17;;;;;;;7.63;4.30;;;;;;;19.19;92.74;99943.28;4997684;28;20737;-75
2023/07/20 02:46:43;;;;;;;14.73;3.90;;;;;;;19.12;92.83;99941.78;4999987;28;20550;-74
2023/07/20 02:49:09;;;;;;;8.35;3.92;;;;;;;19.13;93.16;99950.59;4999512;28;20050;-75
2023/07/20 02:51:34;;;;;;;12.73;4.28;;;;;;;19.13;92.93;99947.94;5001000;28;20117;-75
2023/07/20 02:54:01;;;;;;;12.15;4.25;;;;;;;19.01;93.04;99935.06;4996380;28;20568;-74
2023/07/20 02:56:26;;;;;;;11.82;4.22;;;;;;;19.07;93.29;99949.88;5000867;28;20097;-74
2023/07/20 02:58:52;;;;;;;12.77;4.53;;;;;;;19.04;93.80;99947.03;4998367;28;20121;-73
2023/07/20 03:01:17;;;;;;;9.18;4.03;;;;;;;19.06;93.82;99952.88;4995598;28;20033;-74
2023/07/20 03:03:46;;;;;;;11.43;4.15;;;;;;;19.01;93.85;99951.06;4998918;28;20052;-75
2023/07/20 03:06:13;;;;;;;9.75;4.00;;;;;;;18.95;93.97;99930.09;4997999;28;20033;-74
2023/07/20 03:08:38;;;;;;;9.35;4.55;;;;;;;18.95;94.13;99936.22;4998530;28;20026;-74
2023/07/20 03:11:03;;;;;;;10.25;3.85;;;;;;;18.96;94.07;99939.66;4997623;28;20794;-74
2023/07/20 03:13:29;;;;;;;12.75;4.22;;;;;;;19.03;94.23;99938.19;5003153;28;20033;-74
2023/07/20 03:15:55;;;;;;;13.05;4.25;;;;;;;19.01;94.22;99921.72;5000490;28;20439;-74
2023/07/20 03:18:20;;;;;;;10.98;3.90;;;;;;;19.12;93.96;99941.00;4999439;28;20483;-75
2023/07/20 03:20:46;;;;;;;10.68;3.95;;;;;;;19.11;93.71;99937.53;5000716;28;20486;-75
2023/07/20 03:23:11;;;;;;;16.73;4.15;;;;;;;19.12;93.64;99939.13;4997695;28;20104;-75
2023/07/20 03:25:37;;;;;;;13.68;4.15;;;;;;;19.11;93.67;99940.22;4998413;28;20030;-75
2023/07/20 03:28:03;;;;;;;11.30;4.40;;;;;;;19.06;93.71;99926.97;4997109;28;20036;-74
2023/07/20 03:30:28;;;;;;;19.02;4.50;;;;;;;18.90;93.93;99925.63;5000361;28;20104;-73
2023/07/20 03:32:54;;;;;;;12.65;4.35;;;;;;;18.97;94.15;99935.94;4998489;28;20057;-73
2023/07/20 03:35:19;;;;;;;10.27;5.20;;;;;;;19.00;94.29;99946.78;4992958;28;20068;-75
2023/07/20 03:37:44;;;;;;;14.48;4.78;;;;;;;18.92;94.06;99942.13;4998379;28;20531;-74
2023/07/20 03:40:10;;;;;;;12.48;4.60;;;;;;;18.99;94.32;99961.22;4995971;28;20052;-75
2023/07/20 03:42:36;;;;;;;11.18;4.60;;;;;;;18.95;94.45;99964.78;4997718;28;20117;-73
2023/07/20 03:45:02;;;;;;;13.25;5.07;;;;;;;18.92;94.46;99968.81;4998340;28;20056;-74
2023/07/20 03:47:28;;;;;;;11.63;4.90;;;;;;;18.94;94.65;99974.66;4998578;28;20048;-75
2023/07/20 03:49:54;;;;;;;11.00;4.63;;;;;;;18.96;94.71;99974.34;4998314;28;20026;-75
2023/07/20 03:52:19;;;;;;;11.90;4.80;;;;;;;18.97;94.80;99987.41;4999115;28;20373;-74
2023/07/20 03:54:45;;;;;;;21.75;5.28;;;;;;;19.00;95.02;99984.16;4995034;28;20033;-74
2023/07/20 03:57:10;;;;;;;10.63;5.32;;;;;;;19.03;94.92;99993.44;4999607;28;20638;-73
2023/07/20 03:59:37;;;;;;;14.80;5.93;;;;;;;19.04;95.18;99985.16;4997987;28;20032;-76
2023/07/20 04:02:02;;;;;;;9.93;5.50;;;;;;;19.07;95.08;99991.78;5008740;28;20023;-74
2023/07/20 04:04:28;;;;;;;15.85;5.82;;;;;;;19.11;95.09;99985.59;5006057;28;20121;-74
2023/07/20 04:06:53;;;;;;;12.40;5.32;;;;;;;19.17;95.08;99994.28;4997654;28;20022;-75
2023/07/20 04:09:18;;;;;;;21.25;6.43;;;;;;;19.20;95.39;99991.06;4999250;28;20026;-75
2023/07/20 04:11:44;;;;;;;10.55;5.60;;;;;;;19.26;95.49;100007.78;5002791;28;20034;-75
2023/07/20 04:14:09;;;;;;;13.07;6.57;;;;;;;19.26;96.12;100005.91;5000390;28;20041;-75
2023/07/20 04:16:34;;;;;;;14.05;6.43;;;;;;;19.34;96.46;100025.78;4999237;28;20030;-74
2023/07/20 04:19:00;;;;;;;10.43;5.60;;;;;;;19.36;97.38;100038.84;4999899;28;20034;-74
2023/07/20 04:21:27;;;;;;;11.80;5.50;;;;;;;19.40;96.98;100039.88;5005874;28;20024;-74
2023/07/20 04:23:52;;;;;;;12.35;6.10;;;;;;;19.37;97.64;100030.56;5002463;28;20034;-75
2023/07/20 04:26:18;;;;;;;12.27;6.00;;;;;;;19.43;97.34;100016.03;5002134;28;20041;-75
2023/07/20 04:28:43;;;;;;;15.02;5.82;;;;;;;19.40;97.30;99997.13;5002298;28;20044;-75
2023/07/20 04:31:13;;;;;;;12.40;5.55;;;;;;;19.54;97.45;100025.44;5000300;28;20515;-75
2023/07/20 04:33:39;;;;;;;10.27;5.10;;;;;;;19.58;97.79;100032.88;5000523;28;20479;-74
2023/07/20 04:36:05;;;;;;;12.70;5.50;;;;;;;19.48;97.95;100039.97;5005109;28;20080;-74
2023/07/20 04:38:30;;;;;;;13.13;5.53;;;;;;;19.51;97.99;100047.41;5012021;28;20022;-75
2023/07/20 04:40:56;;;;;;;13.73;5.70;;;;;;;19.55;98.70;100064.41;5026535;28;20030;-74
2023/07/20 04:43:21;;;;;;;12.32;5.55;;;;;;;19.65;99.01;100071.47;5014667;28;20087;-74
2023/07/20 04:45:46;;;;;;;19.00;5.90;;;;;;;19.67;98.77;100068.50;5012781;28;20133;-75
2023/07/20 04:48:14;;;;;;;13.88;6.35;;;;;;;19.66;99.03;100067.72;5011817;28;20030;-74
2023/07/20 04:50:45;;;;;;;13.50;5.95;;;;;;;19.72;99.22;100077.25;5007248;28;20026;-73
2023/07/20 04:53:13;;;;;;;11.77;5.70;;;;;;;19.71;99.37;100073.00;5013471;28;20494;-74
2023/07/20 04:55:50;;;;;;;8.85;4.97;;;;;;;19.77;99.81;100066.47;5011118;28;20102;-74
2023/07/20 04:58:15;;;;;;;12.10;5.10;;;;;;;19.82;99.45;100054.13;5009027;28;20042;-73
2023/07/20 05:00:41;;;;;;;11.68;5.30;;;;;;;19.80;99.48;100050.94;5012475;28;20038;-73
2023/07/20 05:03:06;;;;;;;17.23;5.68;;;;;;;19.89;98.99;100070.56;5010762;28;20037;-75
2023/07/20 05:05:32;;;;;;;11.23;5.60;;;;;;;19.95;99.29;100069.38;5009835;28;20037;-73
2023/07/20 05:07:57;;;;;;;14.50;6.00;;;;;;;19.89;99.43;100055.31;5007193;28;20027;-74
2023/07/20 05:10:23;;;;;;;15.75;6.32;;;;;;;20.05;99.67;100079.88;5010937;28;20040;-74
2023/07/20 05:12:49;;;;;;;13.13;6.10;;;;;;;19.95;99.54;100056.81;5012559;28;20090;-74
2023/07/20 05:15:14;;;;;;;13.18;5.68;;;;;;;19.97;99.41;100049.28;5009617;28;20061;-74
2023/07/20 05:17:40;;;;;;;12.82;5.40;;;;;;;20.24;99.01;100068.31;5009689;28;20121;-73
2023/07/20 05:20:06;;;;;;;13.02;5.57;;;;;;;20.34;97.71;100078.81;5012883;28;20053;-75
2023/07/20 05:22:32;;;;;;;12.27;5.57;;;;;;;20.39;97.51;100068.78;5010157;28;20045;-73
2023/07/20 05:24:57;;;;;;;15.13;5.32;;;;;;;20.46;96.86;100078.31;5015147;28;20022;-74
2023/07/20 05:27:23;;;;;;;11.60;5.30;;;;;;;20.54;96.36;100083.75;5014809;28;20164;-75
2023/07/20 05:29:48;;;;;;;15.77;4.90;;;;;;;20.59;94.59;100089.03;5013201;28;20033;-73
2023/07/20 05:32:14;;;;;;;10.00;5.22;;;;;;;20.60;94.07;100082.56;5012688;28;20547;-75
2023/07/20 05:34:39;;;;;;;12.20;4.53;;;;;;;20.50;94.26;100071.28;5006977;28;20041;-75
2023/07/20 05:37:05;;;;;;;7.57;4.22;;;;;;;20.67;93.81;100084.84;4999820;28;20039;-75
2023/07/20 05:39:33;;;;;;;11.48;4.60;;;;;;;20.75;93.39;100086.78;5004735;28;20038;-76
2023/07/20 05:41:58;;;;;;;12.75;4.53;;;;;;;20.73;92.59;100074.81;5000942;28;20026;-74
2023/07/20 05:44:23;;;;;;;10.63;4.20;;;;;;;20.77;92.22;100075.81;5008078;28;20095;-74
2023/07/20 05:46:49;;;;;;;10.70;4.68;;;;;;;20.79;91.94;100074.41;5004058;28;20031;-74
2023/07/20 05:49:14;;;;;;;11.20;4.63;;;;;;;20.90;92.18;100080.34;5001693;28;20034;-74
2023/07/20 05:51:39;;;;;;;12.07;5.00;;;;;;;20.88;91.70;100066.47;5002955;28;20029;-73
2023/07/20 05:54:05;;;;;;;11.63;4.07;;;;;;;20.98;91.38;100068.91;5003734;28;20080;-75
2023/07/20 05:56:30;;;;;;;19.75;4.65;;;;;;;21.02;90.90;100066.41;5000358;28;20026;-75
2023/07/20 05:58:55;;;;;;;11.20;5.22;;;;;;;21.04;91.01;100061.53;4999378;28;20080;-75
2023/07/20 06:01:21;;;;;;;14.05;4.93;;;;;;;21.12;90.65;100068.06;5001547;28;20905;-73
2023/07/20 06:03:46;;;;;;;10.43;5.38;;;;;;;21.17;90.22;100071.41;5001396;28;20094;-74
2023/07/20 06:06:12;;;;;;;7.15;4.75;;;;;;;21.19;90.19;100073.78;5004099;28;20026;-71
2023/07/20 06:08:38;;;;;;;9.98;4.93;;;;;;;21.19;89.93;100071.09;5003542;28;20201;-73
2023/07/20 06:11:03;;;;;;;11.77;4.53;;;;;;;21.25;89.99;100080.59;5001031;28;20053;-77
2023/07/20 06:13:29;;;;;;;9.60;4.95;;;;;;;21.20;89.56;100062.78;5000601;28;20571;-74
2023/07/20 06:15:55;;;;;;;8.00;4.53;;;;;;;21.28;89.50;100074.63;4999784;28;20018;-76
2023/07/20 06:18:24;;;;;;;11.95;4.95;;;;;;;21.29;89.46;100070.09;4999949;28;20395;-75
2023/07/20 06:20:53;;;;;;;;;;;;;;;21.32;89.47;100080.97;5004183;28;20033;-76
2023/07/20 06:23:19;;;;;;;9.93;4.95;;;;;;;21.34;89.50;100078.00;5001038;28;19921;-75
2023/07/20 06:25:44;;;;;;;12.05;5.07;;;;;;;21.36;89.33;100073.13;5001670;28;20046;-76
2023/07/20 06:28:10;;;;;;;16.27;4.90;;;;;;;21.41;88.78;100076.50;5004532;28;20905;-76
2023/07/20 06:30:35;;;;;;;12.93;4.78;;;;;;;21.42;88.83;100083.44;5001473;28;20034;-76
2023/07/20 06:33:00;;;;;;;12.20;5.38;;;;;;;21.49;88.72;100098.31;5004636;28;20112;-75
2023/07/20 08:09:12;;;;;;;8.98;4.72;;;;;;;22.65;85.76;100039.13;5180562;23;20058;-75
2023/07/20 08:11:39;;;;;;;9.70;4.63;;;;;;;22.65;85.17;100039.13;4948749;28;20397;-76
2023/07/20 08:14:05;;;;;;;7.80;4.43;;;;;;;22.72;85.48;100039.44;4947850;28;20042;-76
2023/07/20 08:16:30;;;;;;;8.68;5.03;;;;;;;22.69;85.25;100035.50;4942068;28;20035;-76
2023/07/20 08:18:55;;;;;;;8.35;5.25;;;;;;;22.73;85.25;100044.50;4943559;28;20887;-76
2023/07/20 08:21:21;;;;;;;6.88;5.00;;;;;;;22.56;84.97;100012.31;4946630;28;20038;-78
2023/07/20 08:23:46;;;;;;;13.68;5.38;;;;;;;22.80;85.22;100037.91;4948518;28;20582;-78
2023/07/20 08:26:11;;;;;;;9.93;4.95;;;;;;;;;;4947841;28;20053;-77
2023/07/20 08:28:37;;;;;;;9.73;4.60;;;;;;;22.78;84.91;100032.84;4946191;28;20031;-77
2023/07/20 08:31:06;;;;;;;10.93;4.72;;;;;;;22.75;84.80;100028.09;4946018;28;20484;-74
2023/07/20 08:33:33;;;;;;;7.57;4.65;;;;;;;22.79;84.97;100030.94;4952583;28;20031;-76
2023/07/20 08:36:00;;;;;;;9.93;5.00;;;;;;;22.73;85.32;100036.47;4946041;28;20478;-77
2023/07/20 08:38:26;;;;;;;10.23;5.82;;;;;;;22.67;85.59;100035.06;4945410;28;20031;-77
2023/07/20 08:40:53;;;;;;;12.63;5.53;;;;;;;22.77;85.81;100054.63;4947423;28;20412;-76
2023/07/20 08:43:19;;;;;;;11.32;5.22;;;;;;;22.73;85.87;100052.56;4945385;28;20046;-77
2023/07/20 08:45:46;;;;;;;12.13;5.30;;;;;;;22.78;85.68;100067.72;4943000;28;20458;-75
2023/07/20 08:48:13;;;;;;;25.17;6.80;;;;;;;22.76;85.96;100078.00;4947824;28;20117;-75
2023/07/20 08:51:19;;;;;;;10.30;5.68;;;;;;;22.78;86.03;100096.47;4945036;28;20089;-76
2023/07/20 08:53:46;;;;;;;13.00;5.50;;;;;;;22.69;86.14;100081.13;4961460;28;20115;-75
2023/07/20 08:56:13;;;;;;;15.00;5.38;;;;;;;22.70;86.23;100085.41;4945386;28;20421;-77
2023/07/20 08:58:41;;;;;;;12.80;5.22;;;;;;;22.68;86.25;100076.09;4945462;28;20031;-77
2023/07/20 09:01:07;;;;;;;10.17;5.20;;;;;;;;;;4948517;28;20085;-76
2023/07/20 09:03:32;;;;;;;12.30;5.60;;;;;;;22.72;86.09;100090.44;4946064;28;20032;-75
2023/07/20 09:06:00;;;;;;;9.88;5.63;;;;;;;22.75;86.13;100091.72;4950711;28;20133;-74
2023/07/20 09:08:25;;;;;;;13.45;5.30;;;;;;;22.71;86.57;100084.31;4949633;28;20138;-74
2023/07/20 09:10:50;;;;;;;12.30;5.35;;;;;;;22.68;86.44;100076.88;4949884;28;20686;-71
2023/07/20 09:13:16;;;;;;;8.77;5.20;;;;;;;22.73;86.56;100084.78;4952007;28;20607;-73
2023/07/20 09:15:52;;;;;;;11.88;5.18;;;;;;;22.81;87.14;100090.47;4942558;28;20081;-75
2023/07/20 09:18:25;;;;;;;7.88;5.28;;;;;;;22.83;86.90;100091.75;4946791;28;20465;-74
2023/07/20 09:20:51;;;;;;;14.57;5.43;;;;;;;22.80;86.73;100084.31;4940744;28;20061;-75
2023/07/20 09:23:16;;;;;;;14.05;5.60;;;;;;;22.85;86.41;100072.63;4947074;28;20111;-76
2023/07/20 09:25:42;;;;;;;16.10;5.72;;;;;;;22.93;86.25;100090.63;4943266;28;20583;-77
2023/07/20 09:28:07;;;;;;;12.98;5.22;;;;;;;22.92;86.17;100079.13;4943297;28;20030;-76
2023/07/20 09:30:33;;;;;;;11.15;5.45;;;;;;;22.90;86.35;100069.78;4944737;28;20023;-72
2023/07/20 09:32:58;;;;;;;10.90;5.95;;;;;;;22.97;86.48;100072.00;4947929;28;20035;-75
2023/07/20 09:38:27;;;;;;;8.88;5.28;;;;;;;23.03;86.54;100074.25;4952014;28;20175;-75
2023/07/20 09:40:53;;;;;;;9.90;5.15;;;;;;;23.02;86.27;100064.63;4950188;28;20020;-74
2023/07/20 09:43:19;;;;;;;7.65;5.15;;;;;;;23.06;86.00;100065.56;4954162;28;20035;-74
2023/07/20 09:45:44;;;;;;;9.32;5.20;;;;;;;23.09;86.00;100070.28;4959019;28;20540;-74
2023/07/20 09:50:56;;;;;;;14.10;5.32;;;;;;;22.98;85.45;100054.78;4954673;28;20059;-76
2023/07/20 09:53:25;;;;;;;9.13;4.45;;;;;;;23.03;85.47;100052.75;4947429;28;20126;-74
2023/07/20 09:55:52;;;;;;;10.20;4.97;;;;;;;23.22;84.83;100062.38;4952625;28;20027;-75
2023/07/20 09:58:18;;;;;;;7.32;4.72;;;;;;;23.28;84.78;100064.59;4946349;28;20070;-75
2023/07/20 10:01:02;;;;;;;13.02;5.43;;;;;;;23.24;84.66;100060.97;4946553;28;20063;-75
2023/07/20 10:03:30;;;;;;;11.02;5.45;;;;;;;23.32;84.06;100056.66;4940917;28;20144;-75
2023/07/20 10:06:21;;;;;;;7.70;4.75;;;;;;;23.40;83.63;100069.31;4962678;28;20031;-75
2023/07/20 10:08:48;;;;;;;8.52;4.93;;;;;;;23.36;82.89;100054.94;4958732;28;20074;-74
2023/07/20 10:11:35;;;;;;;12.27;5.10;;;;;;;23.51;82.60;100070.56;4946762;28;20034;-75
2023/07/20 10:14:05;;;;;;;8.70;4.57;;;;;;;23.46;82.11;100053.81;4943675;28;20034;-75
2023/07/20 10:16:39;;;;;;;9.55;4.82;;;;;;;23.59;80.96;100065.50;4946406;28;20019;-76
2023/07/20 10:19:19;;;;;;;9.63;4.40;;;;;;;23.63;80.68;100064.50;4955911;28;20501;-75
2023/07/20 10:21:51;;;;;;;10.05;4.88;;;;;;;23.65;80.35;100064.97;4949327;28;20046;-76
2023/07/20 10:24:18;;;;;;;9.23;4.65;;;;;;;23.73;80.21;100083.03;4953324;28;20038;-75
2023/07/20 10:26:43;;;;;;;9.23;4.97;;;;;;;23.76;80.00;100068.16;4946488;28;20058;-76
2023/07/20 10:29:09;;;;;;;7.30;4.50;;;;;;;23.78;79.93;100066.72;4949097;28;20039;-76
2023/07/20 10:31:36;;;;;;;5.45;3.95;;;;;;;23.81;79.62;100062.59;4948315;28;20035;-75
2023/07/20 10:34:02;;;;;;;8.30;4.68;;;;;;;23.88;79.69;100068.28;4944417;28;20394;-76
2023/07/20 10:39:33;;;;;;;15.60;4.60;;;;;;;24.12;78.69;100086.53;4950380;28;20085;-76
2023/07/20 10:42:10;;;;;;;7.57;4.28;;;;;;;24.17;78.26;100080.19;4943640;28;20031;-74
2023/07/20 10:44:42;;;;;;;7.22;4.35;;;;;;;24.25;77.44;100073.94;4946697;28;20055;-74
2023/07/20 10:47:12;;;;;;;6.40;4.00;;;;;;;24.27;77.49;100069.03;4945887;28;20028;-75
2023/07/20 10:49:58;;;;;;;6.45;4.28;;;;;;;24.37;77.51;100066.00;4941036;28;20481;-78
2023/07/20 10:52:25;;;;;;;8.35;4.45;;;;;;;24.42;77.11;100067.69;4945037;28;20114;-78
2023/07/20 10:54:51;;;;;;;10.50;4.47;;;;;;;24.47;76.99;100072.94;4947851;28;20039;-78
2023/07/20 10:57:37;;;;;;;8.93;4.40;;;;;;;24.64;76.67;100077.41;4946462;28;20023;-77
2023/07/20 11:00:14;;;;;;;12.30;4.82;;;;;;;24.71;76.08;100066.91;4948436;28;20046;-76
2023/07/20 11:02:52;;;;;;;6.82;4.00;;;;;;;24.73;75.88;100056.56;4946766;28;20907;-77
2023/07/20 11:05:37;;;;;;;6.22;4.75;;;;;;;24.87;75.22;100064.41;4944564;28;20039;-77
2023/07/20 11:08:05;;;;;;;14.27;4.88;;;;;;;24.84;74.74;100048.91;4945225;28;20039;-77
2023/07/20 11:10:31;;;;;;;9.25;4.85;;;;;;;24.96;74.62;100058.94;4948974;28;20043;-78
2023/07/20 11:13:19;;;;;;;10.23;5.20;;;;;;;25.14;74.49;100063.06;4948058;28;20482;-78
2023/07/20 11:16:05;;;;;;;9.88;4.70;;;;;;;25.23;74.37;100060.31;4945833;28;20061;-78
2023/07/20 11:18:33;;;;;;;9.90;4.93;;;;;;;25.36;74.42;100050.38;4944168;28;20042;-77
2023/07/20 11:20:59;;;;;;;12.83;5.67;;;;;;;25.49;73.42;100053.88;4946333;28;20035;-76
2023/07/20 11:23:29;;;;;;;11.90;5.20;;;;;;;25.61;71.53;100045.81;4965289;28;20023;-76
2023/07/20 11:25:54;;;;;;;10.32;4.65;;;;;;;25.68;71.55;100041.44;4943370;28;20035;-77
2023/07/20 11:28:20;;;;;;;7.50;4.70;;;;;;;25.77;71.11;100029.78;4944685;28;20035;-77
2023/07/20 11:30:51;;;;;;;9.77;5.05;;;;;;;25.89;70.78;100033.28;4936928;28;20027;-77
2023/07/20 11:33:17;;;;;;;10.25;5.10;;;;;;;26.00;70.52;100032.81;4944905;28;20054;-77
2023/07/20 11:36:02;;;;;;;10.35;5.25;;;;;;;26.06;69.99;100015.31;4944203;28;20054;-78
2023/07/20 11:38:28;;;;;;;8.27;4.78;;;;;;;26.08;69.61;100008.44;4947933;28;20039;-77
2023/07/20 11:40:54;;;;;;;7.25;4.20;;;;;;;26.33;68.77;100019.19;4940162;28;20115;-77
2023/07/20 11:43:23;;;;;;;9.48;4.88;;;;;;;26.52;67.52;100030.19;4944790;28;20035;-77
2023/07/20 11:45:49;;;;;;;7.33;4.43;;;;;;;26.54;67.70;100013.66;4944703;28;20019;-78
2023/07/20 11:48:16;;;;;;;8.68;4.13;;;;;;;26.72;67.14;100019.56;4948428;28;20031;-76
2023/07/20 11:50:41;;;;;;;7.63;4.38;;;;;;;26.80;67.25;100025.97;4947079;28;20031;-77
2023/07/20 11:53:08;;;;;;;9.13;4.03;;;;;;;26.83;66.16;100009.06;4948267;28;20059;-77
2023/07/20 11:55:33;;;;;;;8.85;4.60;;;;;;;26.94;65.89;100010.94;4944830;28;20106;-77
2023/07/20 11:58:04;;;;;;;10.98;4.03;;;;;;;27.07;65.39;100016.28;4945130;28;20446;-77
2023/07/20 12:00:54;;;;;;;10.68;4.20;;;;;;;27.11;65.07;100006.38;4948404;28;20039;-77
2023/07/20 12:03:20;;;;;;;8.45;4.20;;;;;;;27.15;63.67;100002.63;4954425;28;20118;-76
2023/07/20 12:05:45;;;;;;;11.57;3.75;;;;;;;27.21;63.26;99997.00;4956904;28;20039;-75
2023/07/20 12:10:56;;;;;;;7.57;3.88;;;;;;;27.44;63.14;99997.97;4951541;28;20614;-77
2023/07/20 12:13:25;;;;;;;8.40;4.05;;;;;;;27.48;62.28;99984.53;4952152;28;20050;-77
2023/07/20 12:15:54;;;;;;;9.75;4.18;;;;;;;27.55;60.44;99979.28;4954458;28;20023;-79
2023/07/20 12:18:22;;;;;;;;;;;;;;;27.68;60.93;99986.19;4951264;28;20059;-77
2023/07/20 12:20:48;;;;;;;6.38;4.15;;;;;;;27.69;61.19;99974.22;4953395;28;19918;-77
2023/07/20 12:23:14;;;;;;;11.18;4.30;;;;;;;27.79;60.72;99972.91;4953645;28;20477;-76
2023/07/20 12:25:41;;;;;;;5.57;3.60;;;;;;;27.88;60.78;99970.81;4950251;28;20031;-77
2023/07/20 12:53:39;;;;;;;9.45;4.05;;;;;;;28.46;58.05;99962.03;5047706;27;20994;-75
2023/07/20 12:56:05;;;;;;;7.63;3.95;;;;;;;28.57;58.40;99960.31;5040394;28;20068;-76
2023/07/20 12:58:30;;;;;;;7.60;4.07;;;;;;;28.62;57.98;99957.31;5042270;28;20056;-75
2023/07/20 13:00:56;;;;;;;11.27;3.95;;;;;;;28.74;57.40;99958.31;5034849;28;20049;-74
2023/07/20 13:03:41;;;;;;;6.43;3.70;;;;;;;28.82;56.16;99955.34;5044048;28;20159;-74
2023/07/20 13:06:07;;;;;;;12.45;3.90;;;;;;;28.86;56.47;99947.31;5040066;28;20033;-75
2023/07/20 13:08:32;;;;;;;7.10;3.90;;;;;;;28.97;56.59;99955.63;5042330;28;20029;-75
2023/07/20 13:10:57;;;;;;;8.07;3.73;;;;;;;28.97;56.41;99932.03;5037801;28;20032;-77
2023/07/20 13:13:23;;;;;;;12.63;4.47;;;;;;;29.10;55.71;99943.50;5037455;28;20282;-77
2023/07/20 13:15:49;;;;;;;4.82;3.42;;;;;;;29.17;55.34;99943.63;5041561;28;20032;-77
2023/07/20 13:18:14;;;;;;;8.57;3.85;;;;;;;29.16;55.64;99933.13;5069627;28;20025;-78
2023/07/20 13:20:40;;;;;;;8.35;4.25;;;;;;;29.25;55.06;99933.66;5037516;28;20087;-77
2023/07/20 13:23:05;;;;;;;8.15;4.00;;;;;;;29.27;54.85;99928.66;5036233;28;20170;-77
2023/07/20 13:28:15;;;;;;;6.93;3.60;;;;;;;29.39;53.70;99933.91;5040640;28;20044;-77
2023/07/20 13:30:40;;;;;;;6.05;3.75;;;;;;;29.46;54.04;99931.31;5042097;28;20029;-76
2023/07/20 13:33:06;;;;;;;5.35;3.63;;;;;;;29.43;53.38;99915.75;5033453;28;20094;-76
2023/07/20 13:35:33;;;;;;;6.47;3.53;;;;;;;29.53;53.94;99919.00;5041440;28;20033;-76
2023/07/20 13:37:59;;;;;;;9.57;4.25;;;;;;;29.55;53.11;99905.84;5037318;28;20059;-76
2023/07/20 13:40:24;;;;;;;7.47;3.28;;;;;;;29.67;53.03;99914.59;5044930;28;20056;-76
2023/07/20 13:43:08;;;;;;;5.75;3.83;;;;;;;29.76;53.10;99918.97;5040957;28;20028;-76